Time;durP1;ratioP1;P1;durP2;ratioP2;P2;SDS_P1;SDS_P2;PMS_P1;PMS_P2;Temp;Humidity;BMP_temperature;BMP_pressure;BME280_temperature;BME280_humidity;BME280_pressure;Samples;Min_cycle;Max_cycle;Signal;HPM_P1;HPM_P2
2023/08/07 00:01:07;;;;;;;3.95;1.70;;;15.30;99.90;;;;;;4823210;29;20066;-92
2023/08/07 00:03:33;;;;;;;1.65;1.55;;;15.30;99.90;;;;;;4817305;29;20049;-93
2023/08/07 00:05:58;;;;;;;4.03;1.50;;;15.40;99.90;;;;;;4834874;29;20127;-93
2023/08/07 00:08:27;;;;;;;1.65;0.90;;;15.30;99.90;;;;;;4834042;29;20048;-94
2023/08/07 00:10:52;;;;;;;1.75;1.30;;;15.50;99.90;;;;;;4834326;29;20127;-93
2023/08/07 00:13:18;;;;;;;2.33;1.20;;;15.50;99.90;;;;;;4849184;29;20072;-91
2023/08/07 00:15:44;;;;;;;4.03;1.67;;;15.40;99.90;;;;;;4838013;29;20045;-93
2023/08/07 00:18:10;;;;;;;2.80;1.65;;;15.40;99.90;;;;;;4845846;29;20135;-92
2023/08/07 00:20:36;;;;;;;3.95;2.00;;;15.40;99.90;;;;;;4849633;29;20111;-93
2023/08/07 00:23:02;;;;;;;7.43;1.90;;;15.30;99.90;;;;;;4848633;29;20508;-93
2023/08/07 00:25:28;;;;;;;6.00;1.75;;;15.30;99.90;;;;;;4854704;29;20044;-93
2023/08/07 00:27:54;;;;;;;3.85;1.77;;;15.30;99.90;;;;;;4849880;29;20469;-93
2023/08/07 00:30:20;;;;;;;2.92;1.83;;;15.30;99.90;;;;;;4834265;29;20045;-93
2023/08/07 00:32:46;;;;;;;3.15;1.70;;;15.30;99.90;;;;;;4846612;29;20112;-92
2023/08/07 00:35:12;;;;;;;3.47;1.60;;;15.20;99.90;;;;;;4834703;29;20049;-92
2023/08/07 00:37:40;;;;;;;4.20;1.70;;;15.20;99.90;;;;;;4859209;29;20120;-93
2023/08/07 00:40:06;;;;;;;4.25;1.80;;;15.20;99.90;;;;;;4818681;29;20493;-93
2023/08/07 00:42:32;;;;;;;3.33;1.67;;;15.20;99.90;;;;;;4847422;29;20119;-92
2023/08/07 00:44:58;;;;;;;3.65;1.70;;;15.20;99.90;;;;;;4847499;29;20164;-93
2023/08/07 00:47:26;;;;;;;3.83;1.60;;;15.20;99.90;;;;;;4844891;29;20050;-93
2023/08/07 00:49:55;;;;;;;2.53;1.63;;;15.60;99.90;;;;;;4849642;29;20045;-92
2023/08/07 00:52:21;;;;;;;2.15;1.30;;;15.10;99.90;;;;;;4848617;29;20052;-93
2023/08/07 00:54:47;;;;;;;2.55;1.33;;;15.10;99.90;;;;;;4855289;29;20045;-93
2023/08/07 00:57:17;;;;;;;3.17;1.25;;;15.10;99.90;;;;;;4842462;29;20073;-92
2023/08/07 00:59:43;;;;;;;3.05;1.35;;;15.00;99.90;;;;;;4851847;29;20682;-95
2023/08/07 01:02:10;;;;;;;3.55;1.15;;;15.00;99.90;;;;;;4849775;29;20104;-93
2023/08/07 01:04:36;;;;;;;3.20;1.20;;;15.00;99.90;;;;;;4826670;29;20073;-94
2023/08/07 01:07:02;;;;;;;2.28;1.20;;;15.00;99.90;;;;;;4841296;29;20044;-93
2023/08/07 01:09:30;;;;;;;1.98;1.30;;;15.00;99.90;;;;;;4829072;29;20128;-92
2023/08/07 01:12:05;;;;;;;3.08;1.20;;;15.00;99.90;;;;;;4846116;29;20092;-91
2023/08/07 01:14:42;;;;;;;2.25;1.27;;;15.00;99.90;;;;;;4848352;29;20052;-92
2023/08/07 01:17:15;;;;;;;3.30;1.50;;;14.90;99.90;;;;;;4846449;29;20083;-93
2023/08/07 01:19:41;;;;;;;2.15;1.30;;;14.90;99.90;;;;;;4841498;29;20057;-92
2023/08/07 01:22:17;;;;;;;2.40;1.20;;;14.90;99.90;;;;;;4847180;29;20045;-93
2023/08/07 01:24:46;;;;;;;2.63;1.20;;;14.80;99.90;;;;;;4844208;29;20493;-92
2023/08/07 01:27:18;;;;;;;4.35;1.35;;;14.80;99.90;;;;;;4845875;29;20041;-92
2023/08/07 01:30:08;;;;;;;3.35;1.42;;;14.70;99.90;;;;;;4846781;29;20044;-93
2023/08/07 01:33:02;;;;;;;2.47;1.33;;;14.70;99.90;;;;;;4843599;29;20042;-92
2023/08/07 01:35:33;;;;;;;2.28;1.30;;;15.10;99.90;;;;;;4862458;29;20770;-94
2023/08/07 01:38:00;;;;;;;3.78;1.30;;;14.60;99.90;;;;;;4848043;29;20083;-93
2023/08/07 01:40:27;;;;;;;2.40;1.08;;;14.60;99.90;;;;;;4862123;29;20457;-93
2023/08/07 01:42:54;;;;;;;3.33;1.30;;;14.50;99.90;;;;;;4848805;29;20040;-93
2023/08/07 01:45:27;;;;;;;5.47;1.27;;;14.50;99.90;;;;;;4848346;29;20457;-92
2023/08/07 01:47:54;;;;;;;2.78;1.30;;;14.50;99.90;;;;;;4846394;29;20152;-92
2023/08/07 01:50:21;;;;;;;2.60;1.20;;;14.50;99.90;;;;;;4832628;29;20041;-91
2023/08/07 01:52:47;;;;;;;2.83;1.20;;;14.50;99.90;;;;;;4847468;29;20045;-92
2023/08/07 01:55:17;;;;;;;2.80;1.50;;;14.40;99.90;;;;;;4852871;29;20116;-92
2023/08/07 01:57:43;;;;;;;3.53;1.35;;;14.40;99.90;;;;;;4848500;29;20184;-92
2023/08/07 02:00:09;;;;;;;2.67;1.60;;;13.80;99.90;;;;;;4829692;29;20041;-93
2023/08/07 02:02:36;;;;;;;2.55;1.60;;;14.40;99.90;;;;;;4845004;29;20117;-92
2023/08/07 02:05:02;;;;;;;3.88;1.50;;;14.50;99.90;;;;;;4847570;29;20043;-93
2023/08/07 02:07:28;;;;;;;3.75;1.08;;;14.40;99.90;;;;;;4846954;29;20056;-92
2023/08/07 02:09:54;;;;;;;3.38;1.50;;;14.40;99.90;;;;;;4844292;29;20038;-92
2023/08/07 02:12:22;;;;;;;2.40;1.05;;;14.40;99.90;;;;;;4844359;29;20053;-92
2023/08/07 02:14:48;;;;;;;2.65;1.05;;;14.40;99.90;;;;;;4816179;29;20049;-92
2023/08/07 02:17:14;;;;;;;3.97;1.38;;;14.40;99.90;;;;;;4852842;29;20512;-93
2023/08/07 02:19:39;;;;;;;3.67;1.55;;;14.40;99.90;;;;;;4831039;29;20068;-92
2023/08/07 02:22:05;;;;;;;2.97;1.40;;;14.40;99.90;;;;;;4878011;29;20067;-93
2023/08/07 02:24:31;;;;;;;2.70;1.10;;;14.40;99.90;;;;;;4830627;29;20049;-92
2023/08/07 02:26:57;;;;;;;3.53;1.35;;;14.40;99.90;;;;;;4855554;29;20484;-92
2023/08/07 02:29:23;;;;;;;2.15;1.30;;;14.40;99.90;;;;;;4830394;29;20045;-91
2023/08/07 02:31:49;;;;;;;2.42;1.40;;;14.40;99.90;;;;;;4847744;29;20521;-92
2023/08/07 02:34:15;;;;;;;2.50;1.40;;;14.40;99.90;;;;;;4859593;29;20152;-93
2023/08/07 02:36:40;;;;;;;3.80;1.45;;;14.40;99.90;;;;;;4847296;29;20052;-92
2023/08/07 02:39:07;;;;;;;4.20;1.55;;;14.30;99.90;;;;;;4829845;29;20117;-92
2023/08/07 02:41:33;;;;;;;4.55;1.70;;;14.40;99.90;;;;;;4831301;29;20046;-92
2023/08/07 02:43:58;;;;;;;3.90;1.50;;;14.40;99.90;;;;;;4842932;29;20085;-92
2023/08/07 02:46:24;;;;;;;3.47;1.83;;;14.40;99.90;;;;;;4851571;29;20112;-92
2023/08/07 02:48:50;;;;;;;2.33;1.40;;;14.40;99.90;;;;;;4821383;29;20504;-91
2023/08/07 02:51:16;;;;;;;4.25;1.60;;;14.40;99.90;;;;;;4845201;29;20049;-91
2023/08/07 02:53:42;;;;;;;4.18;1.55;;;14.40;99.90;;;;;;4829663;29;20132;-92
2023/08/07 02:56:07;;;;;;;4.10;1.52;;;14.40;99.90;;;;;;4852908;29;20164;-92
2023/08/07 02:58:33;;;;;;;5.13;1.65;;;14.40;99.90;;;;;;4842316;29;20061;-92
2023/08/07 03:01:08;;;;;;;4.80;1.60;;;14.90;99.90;;;;;;4826264;29;20111;-92
2023/08/07 03:03:34;;;;;;;4.70;1.42;;;14.50;99.90;;;;;;4842021;29;20073;-93
2023/08/07 03:06:00;;;;;;;3.22;1.73;;;14.50;99.90;;;;;;4825732;29;20080;-93
2023/08/07 03:08:28;;;;;;;4.75;1.75;;;14.50;99.90;;;;;;4845029;29;20492;-92
2023/08/07 03:10:56;;;;;;;3.97;1.40;;;14.50;99.90;;;;;;4861642;29;20069;-91
2023/08/07 03:13:23;;;;;;;4.45;1.77;;;14.50;99.90;;;;;;4846528;29;20038;-93
2023/08/07 03:15:51;;;;;;;5.13;2.08;;;14.50;99.90;;;;;;4845144;29;20041;-90
2023/08/07 03:18:17;;;;;;;4.95;1.63;;;14.50;99.90;;;;;;4828430;29;20049;-93
2023/08/07 03:20:43;;;;;;;3.65;1.40;;;14.50;99.90;;;;;;4816304;29;20049;-92
2023/08/07 03:23:10;;;;;;;3.60;1.50;;;14.50;99.90;;;;;;4831306;29;20157;-92
2023/08/07 03:25:36;;;;;;;2.53;1.50;;;14.50;99.90;;;;;;4823875;29;20041;-92
2023/08/07 03:28:01;;;;;;;2.92;1.42;;;14.40;99.90;;;;;;4846932;29;20049;-94
2023/08/07 03:30:27;;;;;;;3.08;1.35;;;14.00;99.90;;;;;;4826723;29;20041;-94
2023/08/07 03:32:53;;;;;;;4.90;1.63;;;14.40;99.90;;;;;;4840605;29;20045;-93
2023/08/07 03:35:19;;;;;;;5.40;1.45;;;14.40;99.90;;;;;;4840419;29;20046;-94
2023/08/07 03:37:45;;;;;;;3.53;1.23;;;14.40;99.90;;;;;;4852337;29;20047;-95
2023/08/07 03:40:14;;;;;;;5.93;1.30;;;14.40;99.90;;;;;;4850179;29;20739;-94
2023/08/07 03:42:42;;;;;;;8.43;1.08;;;14.40;99.90;;;;;;4850986;29;20061;-96
2023/08/07 03:45:14;;;;;;;3.50;1.20;;;14.40;99.90;;;;;;4830003;29;20041;-96
2023/08/07 03:47:42;;;;;;;4.07;0.95;;;14.40;99.90;;;;;;4853088;29;20046;-95
2023/08/07 03:50:08;;;;;;;3.63;1.15;;;14.40;99.90;;;;;;4831684;29;20131;-93
2023/08/07 03:52:45;;;;;;;4.90;1.05;;;14.40;99.90;;;;;;4839697;29;20038;-92
2023/08/07 03:55:11;;;;;;;4.25;0.95;;;14.40;99.90;;;;;;4817591;29;20049;-93
2023/08/07 03:57:40;;;;;;;6.45;1.20;;;14.60;99.90;;;;;;4840617;29;20045;-94
2023/08/07 04:00:09;;;;;;;4.47;1.15;;;14.60;99.90;;;;;;4856086;29;20401;-92
2023/08/07 04:02:38;;;;;;;5.25;1.30;;;14.60;99.90;;;;;;4849363;29;20113;-93
2023/08/07 04:05:04;;;;;;;3.65;1.58;;;14.50;99.90;;;;;;4849773;29;20087;-94
2023/08/07 04:07:30;;;;;;;7.10;1.80;;;14.50;99.90;;;;;;4849017;29;20045;-92
2023/08/07 04:09:58;;;;;;;4.70;1.50;;;14.40;99.90;;;;;;4832732;29;20213;-92
2023/08/07 04:12:27;;;;;;;5.38;1.20;;;14.50;99.90;;;;;;4846678;29;20042;-93
2023/08/07 04:14:56;;;;;;;4.13;1.52;;;14.40;99.90;;;;;;4845088;29;20048;-93
2023/08/07 04:17:26;;;;;;;7.93;2.85;;;14.40;99.90;;;;;;4843634;29;20261;-94
2023/08/07 04:19:52;;;;;;;7.32;1.80;;;14.40;99.90;;;;;;4848663;29;20060;-92
2023/08/07 04:22:18;;;;;;;4.72;1.60;;;14.50;99.90;;;;;;4849307;29;20557;-94
2023/08/07 04:24:52;;;;;;;4.93;1.52;;;14.50;99.90;;;;;;4836017;29;20457;-92
2023/08/07 04:27:18;;;;;;;4.63;1.70;;;14.40;99.90;;;;;;4848318;29;20053;-92
2023/08/07 04:29:44;;;;;;;5.55;2.38;;;14.40;99.90;;;;;;4844768;29;20116;-92
2023/08/07 04:32:10;;;;;;;7.13;2.00;;;14.50;99.90;;;;;;4832844;29;20514;-93
2023/08/07 04:34:38;;;;;;;8.18;2.10;;;14.40;99.90;;;;;;4849149;29;20072;-93
2023/08/07 04:37:05;;;;;;;5.72;2.20;;;13.90;99.90;;;;;;4826038;29;20041;-93
2023/08/07 04:39:32;;;;;;;5.78;2.03;;;14.40;99.90;;;;;;4836162;29;20103;-94
2023/08/07 04:41:57;;;;;;;6.40;2.13;;;14.40;99.90;;;;;;4856642;29;20037;-93
2023/08/07 04:44:23;;;;;;;6.60;2.35;;;15.10;99.90;;;;;;4854463;29;20374;-92
2023/08/07 04:46:49;;;;;;;6.50;2.20;;;14.40;99.90;;;;;;4848644;29;20041;-93
2023/08/07 04:49:15;;;;;;;8.63;2.03;;;14.40;99.90;;;;;;4845978;29;20048;-92
2023/08/07 04:51:40;;;;;;;5.30;2.40;;;14.40;99.90;;;;;;4847679;29;20052;-95
2023/08/07 04:54:06;;;;;;;6.40;2.00;;;14.40;99.90;;;;;;4841336;29;20042;-94
2023/08/07 04:56:32;;;;;;;8.82;1.88;;;14.70;99.90;;;;;;4844613;29;20076;-93
2023/08/07 04:59:00;;;;;;;9.35;2.13;;;14.40;99.90;;;;;;4844183;29;20042;-94
2023/08/07 05:01:26;;;;;;;6.25;1.80;;;14.50;99.90;;;;;;4848889;29;20397;-94
2023/08/07 05:03:52;;;;;;;6.05;1.92;;;14.20;99.90;;;;;;4832874;29;20053;-93
2023/08/07 05:06:20;;;;;;;7.50;1.80;;;14.60;99.90;;;;;;4857865;29;20503;-94
2023/08/07 05:08:46;;;;;;;6.00;1.42;;;14.60;99.90;;;;;;4825727;29;20124;-93
2023/08/07 05:11:15;;;;;;;5.75;1.88;;;14.70;99.90;;;;;;4848292;29;20124;-94
2023/08/07 05:13:43;;;;;;;5.43;1.88;;;14.70;99.90;;;;;;4848930;29;20041;-94
2023/08/07 05:16:09;;;;;;;6.75;2.30;;;14.80;99.90;;;;;;4860224;29;20644;-93
2023/08/07 05:18:37;;;;;;;6.68;2.08;;;14.90;99.90;;;;;;4847372;29;20171;-95
2023/08/07 05:21:03;;;;;;;9.02;2.00;;;14.90;99.90;;;;;;4831857;29;20053;-95
2023/08/07 05:23:38;;;;;;;7.57;2.17;;;15.00;99.90;;;;;;4864163;29;20049;-94
2023/08/07 05:26:12;;;;;;;6.47;2.97;;;15.00;99.90;;;;;;4862835;29;20049;-94
2023/08/07 05:28:38;;;;;;;6.82;2.35;;;15.00;99.90;;;;;;4842401;29;20049;-93
2023/08/07 05:31:04;;;;;;;8.13;2.25;;;15.00;99.90;;;;;;4849130;29;20063;-94
2023/08/07 05:33:33;;;;;;;9.77;2.20;;;15.00;99.90;;;;;;4850067;29;20095;-94
2023/08/07 05:36:06;;;;;;;9.50;2.33;;;15.00;99.90;;;;;;4830535;29;20136;-95
2023/08/07 05:38:40;;;;;;;7.25;2.05;;;15.40;99.90;;;;;;4827651;29;20115;-95
2023/08/07 05:41:08;;;;;;;8.40;2.17;;;14.60;99.90;;;;;;4847633;29;20053;-92
2023/08/07 05:43:34;;;;;;;7.70;2.03;;;15.00;99.90;;;;;;4837157;29;20704;-93
2023/08/07 05:46:11;;;;;;;7.85;1.90;;;15.20;99.90;;;;;;4837534;29;20041;-96
2023/08/07 05:48:39;;;;;;;7.15;1.60;;;15.40;99.90;;;;;;4851111;29;20055;-93
2023/08/07 05:51:08;;;;;;;7.88;2.22;;;16.30;99.90;;;;;;4839357;29;20041;-95
2023/08/07 05:53:38;;;;;;;7.22;2.03;;;16.60;99.90;;;;;;4831019;29;20128;-95
2023/08/07 05:56:22;;;;;;;6.35;1.88;;;16.40;99.90;;;;;;4863733;29;20045;-95
2023/08/07 05:59:05;;;;;;;5.32;1.85;;;16.10;99.90;;;;;;4861446;29;20412;-95
2023/08/07 06:01:31;;;;;;;6.03;1.77;;;15.90;99.90;;;;;;4833761;29;20088;-96
2023/08/07 06:04:06;;;;;;;7.32;2.25;;;15.40;99.90;;;;;;4865470;29;20100;-96
2023/08/07 06:06:45;;;;;;;7.00;2.15;;;15.20;99.90;;;;;;4861826;29;20037;-96
2023/08/07 06:09:35;;;;;;;10.18;2.35;;;15.10;99.90;;;;;;4847003;29;20049;-94
2023/08/07 06:12:11;;;;;;;7.68;2.70;;;15.00;99.90;;;;;;4863332;29;20037;-94
2023/08/07 06:14:41;;;;;;;5.53;1.88;;;15.00;99.90;;;;;;4846805;29;20104;-93
2023/08/07 06:17:13;;;;;;;5.50;1.40;;;15.00;99.90;;;;;;4864594;29;20093;-95
2023/08/07 06:19:42;;;;;;;8.15;1.55;;;15.50;99.90;;;;;;4861375;29;20534;-94
2023/08/07 06:22:21;;;;;;;4.45;1.52;;;15.70;99.90;;;;;;4865783;29;20047;-95
2023/08/07 06:28:08;;;;;;;7.55;1.70;;;16.80;99.90;;;;;;4862607;29;20045;-95
2023/08/07 06:30:40;;;;;;;5.63;1.55;;;16.60;99.90;;;;;;4844566;29;20105;-94
2023/08/07 06:34:05;;;;;;;;;;;;;;;;;;;;;
2023/08/07 06:36:40;;;;;;;6.68;1.65;;;15.80;99.90;;;;;;4845107;29;20052;-95
2023/08/07 06:39:06;;;;;;;6.35;1.42;;;16.90;99.90;;;;;;4845123;29;20045;-94
2023/08/07 06:41:47;;;;;;;5.95;1.40;;;17.70;99.90;;;;;;4831144;29;20616;-96
2023/08/07 06:44:16;;;;;;;5.85;1.73;;;17.70;99.90;;;;;;4854603;29;20097;-92
2023/08/07 06:47:01;;;;;;;5.03;1.55;;;16.70;99.90;;;;;;4841447;29;20037;-92
2023/08/07 06:57:14;;;;;;;6.13;1.60;;;14.70;99.90;;;;;;4874666;29;20160;-94
2023/08/07 07:00:06;;;;;;;6.88;1.80;;;15.00;99.90;;;;;;4837721;29;20052;-93
2023/08/07 07:02:45;;;;;;;8.15;2.10;;;14.90;99.90;;;;;;4853439;29;20077;-90
2023/08/07 07:05:10;;;;;;;6.97;2.08;;;14.80;99.90;;;;;;4847986;29;20045;-91
2023/08/07 07:07:36;;;;;;;8.15;2.47;;;14.80;99.90;;;;;;4813305;29;20049;-91
2023/08/07 07:10:02;;;;;;;8.80;2.00;;;14.90;99.90;;;;;;4827455;29;20041;-89
2023/08/07 07:12:28;;;;;;;6.30;2.03;;;14.90;99.90;;;;;;4846618;29;20120;-91
2023/08/07 07:14:54;;;;;;;6.10;1.98;;;15.00;99.90;;;;;;4878292;29;20045;-90
2023/08/07 07:17:24;;;;;;;4.60;1.60;;;15.00;99.90;;;;;;4812425;29;20040;-94
2023/08/07 07:19:53;;;;;;;6.45;1.60;;;15.10;99.90;;;;;;4841260;29;20105;-92
2023/08/07 07:22:36;;;;;;;4.50;1.60;;;15.10;99.90;;;;;;4848325;29;20199;-92
2023/08/07 07:25:14;;;;;;;7.38;1.80;;;15.20;99.90;;;;;;4847907;29;20529;-94
2023/08/07 07:27:55;;;;;;;3.88;1.00;;;15.20;99.90;;;;;;4820215;29;20048;-94
2023/08/07 07:30:21;;;;;;;5.80;1.70;;;15.30;99.90;;;;;;4866946;29;20113;-93
2023/08/07 07:32:57;;;;;;;4.05;1.60;;;15.30;99.90;;;;;;4847104;29;20044;-94
2023/08/07 07:35:27;;;;;;;2.75;1.08;;;16.20;99.90;;;;;;4856584;29;20048;-91
2023/08/07 07:37:53;;;;;;;6.82;1.50;;;17.10;99.90;;;;;;4834768;29;20108;-93
2023/08/07 07:40:21;;;;;;;4.88;1.38;;;17.10;99.90;;;;;;4841172;29;20055;-96
2023/08/07 07:43:26;;;;;;;6.18;1.58;;;17.20;99.90;;;;;;4843499;29;20041;-94
2023/08/07 07:46:10;;;;;;;5.45;1.60;;;16.50;99.90;;;;;;4848301;29;20040;-92
2023/08/07 07:49:32;;;;;;;7.88;1.65;;;16.20;99.90;;;;;;4836668;29;20102;-90
2023/08/07 07:52:06;;;;;;;3.67;1.58;;;16.10;99.90;;;;;;4843428;29;20137;-94
2023/08/07 08:01:18;;;;;;;6.53;1.63;;;16.40;99.90;;;;;;4800693;29;20053;-94
2023/08/07 08:07:09;;;;;;;3.97;1.10;;;15.80;99.90;;;;;;4779914;29;20043;-93
2023/08/07 08:09:35;;;;;;;6.03;1.20;;;15.80;99.90;;;;;;4858355;29;20510;-91
2023/08/07 08:12:01;;;;;;;5.60;1.70;;;15.40;99.90;;;;;;4829973;29;20109;-91
2023/08/07 08:14:26;;;;;;;7.20;1.38;;;15.40;99.90;;;;;;4811254;29;20124;-91
2023/08/07 08:16:52;;;;;;;5.60;1.20;;;15.30;99.90;;;;;;4838779;29;20048;-92
2023/08/07 08:19:18;;;;;;;6.10;1.65;;;15.30;99.90;;;;;;4830690;29;20053;-93
2023/08/07 08:21:57;;;;;;;;;;;;;;;;;;;;;
2023/08/07 08:24:25;;;;;;;5.05;1.35;;;15.30;99.90;;;;;;4853580;29;20049;-93
2023/08/07 08:26:51;;;;;;;5.65;1.80;;;15.50;99.90;;;;;;4837614;29;20072;-95
2023/08/07 08:29:17;;;;;;;5.93;1.60;;;15.90;99.90;;;;;;4849969;29;20036;-91
2023/08/07 08:31:43;;;;;;;5.20;1.50;;;16.50;99.90;;;;;;4849912;29;20040;-87
2023/08/07 08:34:11;;;;;;;5.65;1.30;;;17.40;99.90;;;;;;4846347;29;20064;-92
2023/08/07 08:36:37;;;;;;;4.88;1.58;;;18.10;99.90;;;;;;4821527;29;20049;-91
2023/08/07 08:39:03;;;;;;;5.63;1.77;;;18.60;99.90;;;;;;4849009;29;20037;-93
2023/08/07 08:41:30;;;;;;;7.05;2.00;;;18.10;99.90;;;;;;4863383;29;20040;-93
2023/08/07 08:43:56;;;;;;;5.55;1.40;;;17.40;99.90;;;;;;4845883;29;20045;-89
2023/08/07 08:46:25;;;;;;;7.88;1.60;;;17.10;99.90;;;;;;4833515;29;20558;-91
2023/08/07 08:48:58;;;;;;;6.47;1.67;;;17.00;99.90;;;;;;4855957;29;20073;-92
2023/08/07 08:51:25;;;;;;;6.18;1.35;;;17.40;99.90;;;;;;4849598;29;20045;-92
2023/08/07 08:53:53;;;;;;;5.20;1.53;;;17.10;99.90;;;;;;4849569;29;20041;-93
2023/08/07 08:56:22;;;;;;;8.10;1.52;;;17.50;99.90;;;;;;4849180;29;20048;-92
2023/08/07 08:58:51;;;;;;;6.95;1.70;;;18.00;99.90;;;;;;4855940;29;20048;-92
2023/08/07 09:01:18;;;;;;;5.60;1.15;;;18.00;99.90;;;;;;4848979;29;20041;-88
2023/08/07 09:04:06;;;;;;;4.35;1.17;;;18.40;99.90;;;;;;4849094;29;20056;-92
2023/08/07 09:09:30;;;;;;;4.88;1.55;;;18.50;99.90;;;;;;4863191;29;20045;-94
2023/08/07 09:12:01;;;;;;;4.47;1.73;;;18.40;99.90;;;;;;4828858;29;20041;-94
2023/08/07 09:14:31;;;;;;;2.92;1.10;;;18.40;99.90;;;;;;4844263;29;20096;-92
2023/08/07 09:17:03;;;;;;;3.92;1.50;;;18.00;99.90;;;;;;4848801;29;20041;-92
2023/08/07 09:19:29;;;;;;;6.28;1.52;;;18.20;99.90;;;;;;4846600;29;20051;-91
2023/08/07 09:21:55;;;;;;;6.10;1.60;;;17.80;99.90;;;;;;4812358;29;20053;-88
2023/08/07 09:24:28;;;;;;;6.35;1.83;;;17.70;99.90;;;;;;4846761;29;20606;-93
2023/08/07 09:26:58;;;;;;;4.78;1.80;;;17.20;99.90;;;;;;4843788;29;20041;-93
2023/08/07 09:29:24;;;;;;;6.47;1.80;;;16.70;99.90;;;;;;4839527;29;20069;-91
2023/08/07 09:31:53;;;;;;;7.47;1.70;;;17.10;99.90;;;;;;4853356;29;20413;-93
2023/08/07 09:34:20;;;;;;;3.60;1.55;;;17.00;99.90;;;;;;4834655;29;20481;-93
2023/08/07 09:36:49;;;;;;;4.35;1.27;;;16.70;99.90;;;;;;4837732;29;20049;-92
2023/08/07 09:39:15;;;;;;;6.35;1.85;;;16.90;99.90;;;;;;4832493;29;20069;-92
2023/08/07 09:41:40;;;;;;;3.67;1.30;;;17.20;99.90;;;;;;4833472;29;20092;-90
2023/08/07 09:44:10;;;;;;;4.25;1.40;;;17.10;99.90;;;;;;4832939;29;20548;-92
2023/08/07 09:46:45;;;;;;;7.32;1.50;;;17.00;99.90;;;;;;4848033;29;20113;-92
2023/08/07 09:49:11;;;;;;;4.85;1.40;;;17.10;99.90;;;;;;4856084;29;20494;-92
2023/08/07 09:51:47;;;;;;;5.90;1.20;;;17.30;99.90;;;;;;4841809;29;20048;-93
2023/08/07 09:54:16;;;;;;;3.10;1.02;;;17.50;99.90;;;;;;4848493;29;20493;-91
2023/08/07 09:57:01;;;;;;;4.32;1.35;;;17.60;99.90;;;;;;4816715;29;20051;-95
2023/08/07 09:59:31;;;;;;;5.28;1.40;;;17.30;99.90;;;;;;4854751;29;20101;-91
2023/08/07 10:01:57;;;;;;;4.68;1.60;;;17.00;99.90;;;;;;4847165;29;20049;-93
2023/08/07 10:04:29;;;;;;;7.03;1.50;;;16.80;99.90;;;;;;4837141;29;20133;-86
2023/08/07 10:07:28;;;;;;;4.05;1.20;;;16.60;99.90;;;;;;4841675;29;20075;-95
2023/08/07 10:10:03;;;;;;;5.68;1.45;;;16.40;99.90;;;;;;4829646;29;20049;-96
2023/08/07 10:12:35;;;;;;;5.68;0.90;;;16.30;99.90;;;;;;4830431;29;20049;-96
2023/08/07 10:15:57;;;;;;;4.70;1.63;;;16.30;99.90;;;;;;4865072;29;20072;-95
2023/08/07 10:18:56;;;;;;;6.70;1.88;;;16.50;99.90;;;;;;4805818;29;20055;-92
2023/08/07 10:21:26;;;;;;;5.00;1.45;;;16.70;99.90;;;;;;4804257;29;20050;-95
2023/08/07 10:24:09;;;;;;;5.05;1.55;;;16.90;99.90;;;;;;4735079;30;20157;-84
2023/08/07 10:30:52;;;;;;;;;;;;;;;;;;;;;
2023/08/07 10:33:52;;;;;;;5.88;1.52;;;16.50;99.90;;;;;;4840180;29;20065;-95
2023/08/07 10:36:25;;;;;;;5.73;1.53;;;16.50;99.90;;;;;;4836279;29;20670;-95
2023/08/07 10:39:09;;;;;;;5.90;1.67;;;16.50;99.90;;;;;;4829766;29;20685;-93
2023/08/07 10:41:47;;;;;;;4.75;1.63;;;16.50;99.90;;;;;;4826218;29;20037;-95
2023/08/07 10:44:32;;;;;;;6.78;1.02;;;16.50;99.90;;;;;;4832321;29;20078;-95
2023/08/07 10:50:49;;;;;;;7.20;1.30;;;16.30;99.90;;;;;;4800073;29;20074;-93
2023/08/07 10:53:47;;;;;;;3.00;0.95;;;16.30;99.90;;;;;;4849728;29;20485;-94
2023/08/07 10:56:44;;;;;;;4.63;1.10;;;16.60;99.90;;;;;;4827543;29;20054;-94
2023/08/07 11:02:49;;;;;;;2.35;0.80;;;17.30;99.90;;;;;;4853861;29;20056;-93
2023/08/07 11:05:43;;;;;;;2.55;1.02;;;17.50;99.90;;;;;;4837569;29;20045;-94
2023/08/07 11:23:14;;;;;;;4.53;0.95;;;16.60;99.90;;;;;;4836044;29;20061;-96
2023/08/07 11:26:57;;;;;;;;;;;;;;;;;;;;;
2023/08/07 11:33:14;;;;;;;3.58;1.20;;;16.30;99.90;;;;;;4809696;29;20046;-96
2023/08/07 11:36:26;;;;;;;5.95;1.63;;;16.10;99.90;;;;;;4745792;30;20049;-95
2023/08/07 11:39:19;;;;;;;4.80;1.05;;;16.40;99.90;;;;;;4756603;30;20060;-96
2023/08/07 11:43:26;;;;;;;3.70;1.02;;;16.50;99.90;;;;;;4769489;30;20056;-96
2023/08/07 11:46:07;;;;;;;4.88;1.13;;;16.30;99.90;;;;;;4722475;30;20061;-95
2023/08/07 11:48:49;;;;;;;4.18;1.13;;;16.70;99.90;;;;;;4720643;30;20532;-96
2023/08/07 11:51:53;;;;;;;5.70;1.40;;;16.70;99.90;;;;;;4688809;30;20843;-96
2023/08/07 11:54:49;;;;;;;5.75;1.15;;;16.70;99.90;;;;;;4710470;30;20083;-96
2023/08/07 11:57:25;;;;;;;3.85;0.80;;;16.90;99.90;;;;;;4694056;30;20057;-96
2023/08/07 11:59:56;;;;;;;3.22;1.00;;;16.90;99.90;;;;;;4693272;30;20060;-95
2023/08/07 12:02:27;;;;;;;3.05;0.75;;;17.00;99.90;;;;;;4704536;30;20060;-96
2023/08/07 12:23:41;;;;;;;2.45;1.10;;;16.40;99.90;;;;;;4699422;30;20124;-96
2023/08/07 12:26:42;;;;;;;;;;;16.30;99.90;;;;;;4713218;29;20065;-96
2023/08/07 12:29:38;;;;;;;2.58;0.75;;;16.30;99.90;;;;;;4725299;30;19977;-96
2023/08/07 12:32:10;;;;;;;2.35;0.90;;;16.10;99.90;;;;;;4722297;29;20071;-95
2023/08/07 12:34:54;;;;;;;;;;;;;;;;;;;;;
2023/08/07 12:37:36;;;;;;;3.78;0.98;;;16.10;99.90;;;;;;4847032;29;20124;-96
2023/08/07 12:40:03;;;;;;;3.28;1.05;;;16.50;99.90;;;;;;4855879;29;20033;-91
2023/08/07 12:46:11;;;;;;;5.90;1.40;;;17.00;99.90;;;;;;4874497;29;20055;-96
2023/08/07 12:49:10;;;;;;;4.35;1.50;;;17.10;99.90;;;;;;4857675;29;20070;-95
2023/08/07 12:52:10;;;;;;;;;;;;;;;;;;;;;
2023/08/07 12:55:17;;;;;;;2.15;1.02;;;17.10;99.90;;;;;;4847884;29;20042;-95
2023/08/07 12:57:49;;;;;;;4.47;1.27;;;17.20;99.90;;;;;;4849939;29;20093;-94
2023/08/07 13:00:21;;;;;;;6.40;1.17;;;17.20;99.90;;;;;;4859241;29;20080;-96
2023/08/07 13:55:24;;;;;;;3.78;0.95;;;17.20;99.90;;;;;;4822722;29;20057;-89
2023/08/07 14:13:40;;;;;;;3.88;1.50;;;16.40;99.90;;;;;;4860649;24;20184;-48
2023/08/07 14:16:06;;;;;;;6.47;1.42;;;16.80;99.90;;;;;;4854738;29;20053;-47
2023/08/07 14:18:32;;;;;;;4.05;1.30;;;16.80;99.90;;;;;;4853795;29;20278;-47
2023/08/07 15:01:37;;;;;;;2.70;1.02;;;16.90;99.90;;;;;;4845766;29;20054;-95
2023/08/07 15:08:14;;;;;;;5.07;1.08;;;16.40;99.90;;;;;;4835342;29;20057;-96
2023/08/07 15:10:43;;;;;;;2.63;0.80;;;16.60;99.90;;;;;;4818929;29;20049;-95
2023/08/07 15:13:17;;;;;;;5.40;1.02;;;;;;;;;;4818264;29;20070;-95
2023/08/07 15:31:16;;;;;;;3.40;0.70;;;16.40;99.90;;;;;;4832099;29;20044;-96
2023/08/07 15:34:12;;;;;;;2.65;0.73;;;16.10;99.90;;;;;;4800796;29;20039;-96
2023/08/07 15:36:38;;;;;;;1.80;0.90;;;16.20;99.90;;;;;;4796862;29;20047;-84
2023/08/07 15:39:41;;;;;;;;;;;;;;;;;;;;;
2023/08/07 15:43:02;;;;;;;3.15;0.80;;;16.20;99.90;;;;;;4804325;29;20067;-94
2023/08/07 15:46:40;;;;;;;4.15;0.90;;;16.20;99.90;;;;;;4711344;30;20061;-96
2023/08/07 15:49:37;;;;;;;3.08;0.85;;;16.20;99.90;;;;;;4723487;30;20164;-94
2023/08/07 15:52:19;;;;;;;2.58;0.90;;;16.30;99.90;;;;;;4708862;30;20045;-92
2023/08/07 15:55:16;;;;;;;5.53;0.88;;;16.00;99.90;;;;;;4818591;29;20137;-93
2023/08/07 15:57:42;;;;;;;2.25;0.75;;;16.20;99.90;;;;;;4815266;29;20088;-93
2023/08/07 16:04:14;;;;;;;2.42;0.70;;;16.20;99.90;;;;;;4805718;29;20066;-93
2023/08/07 16:07:18;;;;;;;3.78;0.90;;;16.20;99.90;;;;;;4804089;29;20086;-92
2023/08/07 16:23:47;;;;;;;6.10;0.80;;;16.30;99.90;;;;;;4830079;24;20526;-47
2023/08/07 19:55:30;;;;;;;3.75;1.17;;;14.00;99.90;;;;;;4794466;29;20066;-95
2023/08/07 19:58:13;;;;;;;2.65;0.77;;;14.00;99.90;;;;;;4814900;29;20050;-95
2023/08/07 20:00:42;;;;;;;3.03;0.75;;;14.00;99.90;;;;;;4801887;29;20043;-95
2023/08/07 20:03:09;;;;;;;2.47;1.00;;;14.00;99.90;;;;;;4808313;29;20045;-94
2023/08/07 20:05:42;;;;;;;3.33;1.20;;;14.00;99.90;;;;;;4804323;29;20099;-96
2023/08/07 20:08:11;;;;;;;4.00;1.00;;;14.00;99.90;;;;;;4795559;29;20070;-95
2023/08/07 20:11:03;;;;;;;3.22;0.90;;;13.60;99.90;;;;;;4803763;29;20041;-95
2023/08/07 20:13:45;;;;;;;2.75;1.05;;;14.00;99.90;;;;;;4798582;29;20039;-95
2023/08/07 20:16:10;;;;;;;4.32;1.35;;;13.90;99.90;;;;;;4796704;29;20084;-96
2023/08/07 20:19:46;;;;;;;3.30;1.10;;;14.30;99.90;;;;;;4800901;29;20078;-95
2023/08/07 20:22:24;;;;;;;2.90;1.20;;;14.50;99.90;;;;;;4810694;29;20125;-95
2023/08/07 20:24:53;;;;;;;;;;;13.90;99.90;;;;;;4797144;29;20390;-95
2023/08/07 20:27:45;;;;;;;3.20;1.00;;;13.80;99.90;;;;;;4797982;29;19921;-96
2023/08/07 20:30:50;;;;;;;3.25;0.70;;;13.90;99.90;;;;;;4812444;29;20061;-95
2023/08/07 20:33:40;;;;;;;1.77;0.80;;;13.80;99.90;;;;;;4761719;30;20069;-95
2023/08/07 20:36:39;;;;;;;2.45;0.70;;;13.80;99.90;;;;;;4798111;29;20137;-95
2023/08/07 20:39:06;;;;;;;3.60;1.10;;;13.80;99.90;;;;;;4817086;29;20058;-96
2023/08/07 20:45:59;;;;;;;2.30;0.80;;;13.20;99.90;;;;;;4770745;30;20135;-96